sensor_id;sensor_type;location;lat;lon;timestamp;temperature;humidity
21123;DHT22;10719;48.130;11.630;2023-11-21T00:00:20;7.60;99.90
21123;DHT22;10719;48.130;11.630;2023-11-21T00:02:45;7.50;99.90
21123;DHT22;10719;48.130;11.630;2023-11-21T00:05:12;7.40;99.90
21123;DHT22;10719;48.130;11.630;2023-11-21T00:07:40;7.40;99.90
21123;DHT22;10719;48.130;11.630;2023-11-21T00:10:07;7.40;99.90
21123;DHT22;10719;48.130;11.630;2023-11-21T00:12:34;7.40;99.90
21123;DHT22;10719;48.130;11.630;2023-11-21T00:15:00;7.30;99.90
21123;DHT22;10719;48.130;11.630;2023-11-21T00:17:25;7.30;99.90
21123;DHT22;10719;48.130;11.630;2023-11-21T00:19:51;7.20;99.90
21123;DHT22;10719;48.130;11.630;2023-11-21T00:22:20;7.10;99.90
21123;DHT22;10719;48.130;11.630;2023-11-21T00:24:46;7.00;99.90
21123;DHT22;10719;48.130;11.630;2023-11-21T00:27:12;7.00;99.90
21123;DHT22;10719;48.130;11.630;2023-11-21T00:29:38;7.00;99.90
21123;DHT22;10719;48.130;11.630;2023-11-21T00:32:05;7.00;99.90
21123;DHT22;10719;48.130;11.630;2023-11-21T00:34:31;7.00;99.90
21123;DHT22;10719;48.130;11.630;2023-11-21T00:36:57;7.00;99.90
21123;DHT22;10719;48.130;11.630;2023-11-21T00:39:22;6.90;99.90
21123;DHT22;10719;48.130;11.630;2023-11-21T00:41:48;7.00;99.90
21123;DHT22;10719;48.130;11.630;2023-11-21T00:44:14;6.90;99.90
21123;DHT22;10719;48.130;11.630;2023-11-21T00:46:39;6.90;99.90
21123;DHT22;10719;48.130;11.630;2023-11-21T00:49:05;7.00;99.90
21123;DHT22;10719;48.130;11.630;2023-11-21T00:51:30;7.00;99.90
21123;DHT22;10719;48.130;11.630;2023-11-21T00:53:56;7.00;99.90
21123;DHT22;10719;48.130;11.630;2023-11-21T00:56:22;7.10;99.90
21123;DHT22;10719;48.130;11.630;2023-11-21T00:58:47;7.00;99.90
21123;DHT22;10719;48.130;11.630;2023-11-21T01:01:18;7.00;99.90
21123;DHT22;10719;48.130;11.630;2023-11-21T01:03:45;7.10;99.90
21123;DHT22;10719;48.130;11.630;2023-11-21T01:06:11;7.00;99.90
21123;DHT22;10719;48.130;11.630;2023-11-21T01:08:37;7.10;99.90
21123;DHT22;10719;48.130;11.630;2023-11-21T01:11:03;7.00;99.90
21123;DHT22;10719;48.130;11.630;2023-11-21T01:13:30;7.00;99.90
21123;DHT22;10719;48.130;11.630;2023-11-21T01:15:56;7.00;99.90
21123;DHT22;10719;48.130;11.630;2023-11-21T01:18:22;6.90;99.90
21123;DHT22;10719;48.130;11.630;2023-11-21T01:20:47;6.80;99.90
21123;DHT22;10719;48.130;11.630;2023-11-21T01:23:14;6.70;99.90
21123;DHT22;10719;48.130;11.630;2023-11-21T01:25:39;6.70;99.90
21123;DHT22;10719;48.130;11.630;2023-11-21T01:28:05;6.60;99.90
21123;DHT22;10719;48.130;11.630;2023-11-21T01:30:31;6.60;99.90
21123;DHT22;10719;48.130;11.630;2023-11-21T01:32:58;6.50;99.90
21123;DHT22;10719;48.130;11.630;2023-11-21T01:35:23;6.40;99.90
21123;DHT22;10719;48.130;11.630;2023-11-21T01:37:49;6.40;99.90
21123;DHT22;10719;48.130;11.630;2023-11-21T01:40:15;6.40;99.90
21123;DHT22;10719;48.130;11.630;2023-11-21T01:42:41;6.40;99.90
21123;DHT22;10719;48.130;11.630;2023-11-21T01:45:09;6.40;99.90
21123;DHT22;10719;48.130;11.630;2023-11-21T01:47:35;6.40;99.90
21123;DHT22;10719;48.130;11.630;2023-11-21T01:50:02;6.40;99.90
21123;DHT22;10719;48.130;11.630;2023-11-21T01:52:30;6.30;99.90
21123;DHT22;10719;48.130;11.630;2023-11-21T01:54:57;6.30;99.90
21123;DHT22;10719;48.130;11.630;2023-11-21T01:57:23;6.30;99.90
21123;DHT22;10719;48.130;11.630;2023-11-21T01:59:49;6.30;99.90
21123;DHT22;10719;48.130;11.630;2023-11-21T02:02:16;6.30;99.90
21123;DHT22;10719;48.130;11.630;2023-11-21T02:04:42;6.30;99.90
21123;DHT22;10719;48.130;11.630;2023-11-21T02:07:07;6.30;99.90
21123;DHT22;10719;48.130;11.630;2023-11-21T02:09:33;6.30;99.90
21123;DHT22;10719;48.130;11.630;2023-11-21T02:12:00;6.30;99.90
21123;DHT22;10719;48.130;11.630;2023-11-21T02:14:26;6.30;99.90
21123;DHT22;10719;48.130;11.630;2023-11-21T02:16:56;6.40;99.90
21123;DHT22;10719;48.130;11.630;2023-11-21T02:19:26;6.50;99.90
21123;DHT22;10719;48.130;11.630;2023-11-21T02:21:52;6.50;99.90
21123;DHT22;10719;48.130;11.630;2023-11-21T02:24:22;6.40;99.90
21123;DHT22;10719;48.130;11.630;2023-11-21T02:26:48;6.50;99.90
21123;DHT22;10719;48.130;11.630;2023-11-21T02:29:17;6.50;99.90
21123;DHT22;10719;48.130;11.630;2023-11-21T02:31:45;6.50;99.90
21123;DHT22;10719;48.130;11.630;2023-11-21T02:34:17;6.50;99.90
21123;DHT22;10719;48.130;11.630;2023-11-21T02:36:46;6.60;99.90
21123;DHT22;10719;48.130;11.630;2023-11-21T02:39:12;6.70;99.90
21123;DHT22;10719;48.130;11.630;2023-11-21T02:41:38;6.80;99.90
21123;DHT22;10719;48.130;11.630;2023-11-21T02:44:05;6.80;99.90
21123;DHT22;10719;48.130;11.630;2023-11-21T02:46:35;6.90;99.90
21123;DHT22;10719;48.130;11.630;2023-11-21T02:49:02;6.90;99.90
21123;DHT22;10719;48.130;11.630;2023-11-21T02:51:28;6.80;99.90
21123;DHT22;10719;48.130;11.630;2023-11-21T02:53:54;6.80;99.90
21123;DHT22;10719;48.130;11.630;2023-11-21T02:56:20;6.70;99.90
21123;DHT22;10719;48.130;11.630;2023-11-21T02:58:45;6.60;99.90
21123;DHT22;10719;48.130;11.630;2023-11-21T03:01:11;6.70;99.90
21123;DHT22;10719;48.130;11.630;2023-11-21T03:03:40;6.60;99.90
21123;DHT22;10719;48.130;11.630;2023-11-21T03:06:08;6.60;99.90
21123;DHT22;10719;48.130;11.630;2023-11-21T03:08:34;6.60;99.90
21123;DHT22;10719;48.130;11.630;2023-11-21T03:11:00;6.60;99.90
21123;DHT22;10719;48.130;11.630;2023-11-21T03:13:25;6.60;99.90
21123;DHT22;10719;48.130;11.630;2023-11-21T03:15:51;6.60;99.90
21123;DHT22;10719;48.130;11.630;2023-11-21T03:18:17;6.60;99.90
21123;DHT22;10719;48.130;11.630;2023-11-21T03:20:43;6.50;99.90
21123;DHT22;10719;48.130;11.630;2023-11-21T03:23:11;6.50;99.90
21123;DHT22;10719;48.130;11.630;2023-11-21T03:25:37;6.50;99.90
21123;DHT22;10719;48.130;11.630;2023-11-21T03:28:03;6.50;99.90
21123;DHT22;10719;48.130;11.630;2023-11-21T03:30:28;6.50;99.90
21123;DHT22;10719;48.130;11.630;2023-11-21T03:32:54;6.60;99.90
21123;DHT22;10719;48.130;11.630;2023-11-21T03:35:20;6.50;99.90
21123;DHT22;10719;48.130;11.630;2023-11-21T03:37:46;6.50;99.90
21123;DHT22;10719;48.130;11.630;2023-11-21T03:40:12;6.60;99.90
21123;DHT22;10719;48.130;11.630;2023-11-21T03:42:38;6.50;99.90
21123;DHT22;10719;48.130;11.630;2023-11-21T03:45:05;6.60;99.90
21123;DHT22;10719;48.130;11.630;2023-11-21T03:47:31;6.70;99.90
21123;DHT22;10719;48.130;11.630;2023-11-21T03:49:57;6.60;99.90
21123;DHT22;10719;48.130;11.630;2023-11-21T03:52:22;6.60;99.90
21123;DHT22;10719;48.130;11.630;2023-11-21T03:54:48;6.70;99.90
21123;DHT22;10719;48.130;11.630;2023-11-21T03:57:14;6.70;99.90
21123;DHT22;10719;48.130;11.630;2023-11-21T03:59:43;6.70;99.90
21123;DHT22;10719;48.130;11.630;2023-11-21T04:02:09;6.70;99.90
21123;DHT22;10719;48.130;11.630;2023-11-21T04:04:35;6.70;99.90
21123;DHT22;10719;48.130;11.630;2023-11-21T04:07:01;6.60;99.90
21123;DHT22;10719;48.130;11.630;2023-11-21T04:09:27;6.70;99.90
21123;DHT22;10719;48.130;11.630;2023-11-21T04:11:53;6.70;99.90
21123;DHT22;10719;48.130;11.630;2023-11-21T04:14:20;6.70;99.90
21123;DHT22;10719;48.130;11.630;2023-11-21T04:16:45;6.70;99.90
21123;DHT22;10719;48.130;11.630;2023-11-21T04:19:11;6.70;99.90
21123;DHT22;10719;48.130;11.630;2023-11-21T04:21:43;6.70;99.90
21123;DHT22;10719;48.130;11.630;2023-11-21T04:24:09;6.70;99.90
21123;DHT22;10719;48.130;11.630;2023-11-21T04:26:34;6.70;99.90
21123;DHT22;10719;48.130;11.630;2023-11-21T04:29:00;6.70;99.90
21123;DHT22;10719;48.130;11.630;2023-11-21T04:31:25;6.70;99.90
21123;DHT22;10719;48.130;11.630;2023-11-21T04:33:51;6.70;99.90
21123;DHT22;10719;48.130;11.630;2023-11-21T04:36:17;6.70;99.90
21123;DHT22;10719;48.130;11.630;2023-11-21T04:38:42;6.80;99.90
21123;DHT22;10719;48.130;11.630;2023-11-21T04:41:08;6.80;99.90
21123;DHT22;10719;48.130;11.630;2023-11-21T04:43:33;6.90;99.90
21123;DHT22;10719;48.130;11.630;2023-11-21T04:45:59;6.80;99.90
21123;DHT22;10719;48.130;11.630;2023-11-21T04:48:25;6.80;99.90
21123;DHT22;10719;48.130;11.630;2023-11-21T04:50:51;6.90;99.90
21123;DHT22;10719;48.130;11.630;2023-11-21T04:53:17;6.90;99.90
21123;DHT22;10719;48.130;11.630;2023-11-21T04:55:43;6.90;99.90
21123;DHT22;10719;48.130;11.630;2023-11-21T04:58:09;6.90;99.90
21123;DHT22;10719;48.130;11.630;2023-11-21T05:00:35;6.90;99.90
21123;DHT22;10719;48.130;11.630;2023-11-21T05:03:02;6.90;99.90
21123;DHT22;10719;48.130;11.630;2023-11-21T05:05:28;6.90;99.90
21123;DHT22;10719;48.130;11.630;2023-11-21T05:07:55;6.90;99.90
21123;DHT22;10719;48.130;11.630;2023-11-21T05:10:21;6.80;99.90
21123;DHT22;10719;48.130;11.630;2023-11-21T05:12:48;6.80;99.90
21123;DHT22;10719;48.130;11.630;2023-11-21T05:15:16;6.80;99.90
21123;DHT22;10719;48.130;11.630;2023-11-21T05:17:43;6.80;99.90
21123;DHT22;10719;48.130;11.630;2023-11-21T05:20:13;6.80;99.90
21123;DHT22;10719;48.130;11.630;2023-11-21T05:22:40;6.80;99.90
21123;DHT22;10719;48.130;11.630;2023-11-21T05:25:07;6.80;99.90
21123;DHT22;10719;48.130;11.630;2023-11-21T05:27:33;6.70;99.90
21123;DHT22;10719;48.130;11.630;2023-11-21T05:30:03;6.80;99.90
21123;DHT22;10719;48.130;11.630;2023-11-21T05:32:35;6.80;99.90
21123;DHT22;10719;48.130;11.630;2023-11-21T05:35:00;6.80;99.90
21123;DHT22;10719;48.130;11.630;2023-11-21T05:37:26;6.80;99.90
21123;DHT22;10719;48.130;11.630;2023-11-21T05:39:53;6.80;99.90
21123;DHT22;10719;48.130;11.630;2023-11-21T05:42:18;6.70;99.90
21123;DHT22;10719;48.130;11.630;2023-11-21T05:44:46;6.80;99.90
21123;DHT22;10719;48.130;11.630;2023-11-21T05:47:11;6.70;99.90
21123;DHT22;10719;48.130;11.630;2023-11-21T05:49:39;6.70;99.90
21123;DHT22;10719;48.130;11.630;2023-11-21T05:52:05;6.70;99.90
21123;DHT22;10719;48.130;11.630;2023-11-21T05:54:31;6.80;99.90
21123;DHT22;10719;48.130;11.630;2023-11-21T05:56:56;6.70;99.90
21123;DHT22;10719;48.130;11.630;2023-11-21T05:59:23;6.70;99.90
21123;DHT22;10719;48.130;11.630;2023-11-21T06:01:48;6.70;99.90
21123;DHT22;10719;48.130;11.630;2023-11-21T06:04:14;6.80;99.90
21123;DHT22;10719;48.130;11.630;2023-11-21T06:06:39;6.80;99.90
21123;DHT22;10719;48.130;11.630;2023-11-21T06:09:05;6.80;99.90
21123;DHT22;10719;48.130;11.630;2023-11-21T06:11:33;6.80;99.90
21123;DHT22;10719;48.130;11.630;2023-11-21T06:13:59;6.80;99.90
21123;DHT22;10719;48.130;11.630;2023-11-21T06:16:25;6.70;99.90
21123;DHT22;10719;48.130;11.630;2023-11-21T06:18:50;6.80;99.90
21123;DHT22;10719;48.130;11.630;2023-11-21T06:21:16;6.70;99.90
21123;DHT22;10719;48.130;11.630;2023-11-21T06:23:43;6.70;99.90
21123;DHT22;10719;48.130;11.630;2023-11-21T06:26:08;6.70;99.90
21123;DHT22;10719;48.130;11.630;2023-11-21T06:28:35;6.70;99.90
21123;DHT22;10719;48.130;11.630;2023-11-21T06:31:02;6.80;99.90
21123;DHT22;10719;48.130;11.630;2023-11-21T06:33:32;6.80;99.90
21123;DHT22;10719;48.130;11.630;2023-11-21T06:35:57;6.80;99.90
21123;DHT22;10719;48.130;11.630;2023-11-21T06:38:23;6.80;99.90
21123;DHT22;10719;48.130;11.630;2023-11-21T06:40:49;6.80;99.90
21123;DHT22;10719;48.130;11.630;2023-11-21T06:43:15;6.80;99.90
21123;DHT22;10719;48.130;11.630;2023-11-21T06:45:40;6.80;99.90
21123;DHT22;10719;48.130;11.630;2023-11-21T06:48:06;6.80;99.90
21123;DHT22;10719;48.130;11.630;2023-11-21T06:50:32;6.80;99.90
21123;DHT22;10719;48.130;11.630;2023-11-21T06:52:57;6.80;99.90
21123;DHT22;10719;48.130;11.630;2023-11-21T06:55:23;6.80;99.90
21123;DHT22;10719;48.130;11.630;2023-11-21T06:57:49;6.90;99.90
21123;DHT22;10719;48.130;11.630;2023-11-21T07:00:16;6.90;99.90
21123;DHT22;10719;48.130;11.630;2023-11-21T07:02:43;6.90;99.90
21123;DHT22;10719;48.130;11.630;2023-11-21T07:05:09;6.90;99.90
21123;DHT22;10719;48.130;11.630;2023-11-21T07:07:35;7.00;99.90
21123;DHT22;10719;48.130;11.630;2023-11-21T07:10:02;6.90;99.90
21123;DHT22;10719;48.130;11.630;2023-11-21T07:12:31;6.90;99.90
21123;DHT22;10719;48.130;11.630;2023-11-21T07:14:58;7.00;99.90
21123;DHT22;10719;48.130;11.630;2023-11-21T07:17:24;7.00;99.90
21123;DHT22;10719;48.130;11.630;2023-11-21T07:19:50;7.00;99.90
21123;DHT22;10719;48.130;11.630;2023-11-21T07:22:16;7.00;99.90
21123;DHT22;10719;48.130;11.630;2023-11-21T07:24:49;7.00;99.90
21123;DHT22;10719;48.130;11.630;2023-11-21T07:27:18;7.00;99.90
21123;DHT22;10719;48.130;11.630;2023-11-21T07:29:44;6.90;99.90
21123;DHT22;10719;48.130;11.630;2023-11-21T07:32:10;6.90;99.90
21123;DHT22;10719;48.130;11.630;2023-11-21T07:34:36;7.00;99.90
21123;DHT22;10719;48.130;11.630;2023-11-21T07:37:02;7.00;99.90
21123;DHT22;10719;48.130;11.630;2023-11-21T07:39:28;6.90;99.90
21123;DHT22;10719;48.130;11.630;2023-11-21T07:41:54;6.90;99.90
21123;DHT22;10719;48.130;11.630;2023-11-21T07:44:20;6.90;99.90
21123;DHT22;10719;48.130;11.630;2023-11-21T07:46:46;7.00;99.90
21123;DHT22;10719;48.130;11.630;2023-11-21T07:49:12;7.00;99.90
21123;DHT22;10719;48.130;11.630;2023-11-21T07:51:41;7.00;99.90
21123;DHT22;10719;48.130;11.630;2023-11-21T07:54:07;7.10;99.90
21123;DHT22;10719;48.130;11.630;2023-11-21T07:56:33;7.10;99.90
21123;DHT22;10719;48.130;11.630;2023-11-21T07:58:58;7.20;99.90
21123;DHT22;10719;48.130;11.630;2023-11-21T08:01:24;7.20;99.90
21123;DHT22;10719;48.130;11.630;2023-11-21T08:03:50;7.20;99.90
21123;DHT22;10719;48.130;11.630;2023-11-21T08:06:17;7.20;99.90
21123;DHT22;10719;48.130;11.630;2023-11-21T08:08:43;7.30;99.90
21123;DHT22;10719;48.130;11.630;2023-11-21T08:11:08;7.30;99.90
21123;DHT22;10719;48.130;11.630;2023-11-21T08:13:36;7.40;99.90
21123;DHT22;10719;48.130;11.630;2023-11-21T08:16:01;7.50;99.90
21123;DHT22;10719;48.130;11.630;2023-11-21T08:18:29;7.50;99.90
21123;DHT22;10719;48.130;11.630;2023-11-21T08:20:55;7.50;99.90
21123;DHT22;10719;48.130;11.630;2023-11-21T08:23:22;7.50;99.90
21123;DHT22;10719;48.130;11.630;2023-11-21T08:25:51;7.50;99.90
21123;DHT22;10719;48.130;11.630;2023-11-21T08:28:17;7.60;99.90
21123;DHT22;10719;48.130;11.630;2023-11-21T08:30:43;7.50;99.90
21123;DHT22;10719;48.130;11.630;2023-11-21T08:33:09;7.60;99.90
21123;DHT22;10719;48.130;11.630;2023-11-21T08:35:36;7.60;99.90
21123;DHT22;10719;48.130;11.630;2023-11-21T08:38:02;7.60;99.90
21123;DHT22;10719;48.130;11.630;2023-11-21T08:40:28;7.50;99.90
21123;DHT22;10719;48.130;11.630;2023-11-21T08:42:54;7.60;99.90
21123;DHT22;10719;48.130;11.630;2023-11-21T08:45:20;7.60;99.90
21123;DHT22;10719;48.130;11.630;2023-11-21T08:47:47;7.70;99.90
21123;DHT22;10719;48.130;11.630;2023-11-21T08:50:13;7.70;99.90
21123;DHT22;10719;48.130;11.630;2023-11-21T08:52:39;7.60;99.90
21123;DHT22;10719;48.130;11.630;2023-11-21T08:55:06;7.50;99.90
21123;DHT22;10719;48.130;11.630;2023-11-21T08:57:36;7.60;99.90
21123;DHT22;10719;48.130;11.630;2023-11-21T09:00:06;7.80;99.90
21123;DHT22;10719;48.130;11.630;2023-11-21T09:02:37;7.90;99.90
21123;DHT22;10719;48.130;11.630;2023-11-21T09:05:06;8.00;99.90
21123;DHT22;10719;48.130;11.630;2023-11-21T09:07:32;8.20;99.90
21123;DHT22;10719;48.130;11.630;2023-11-21T09:09:57;8.10;99.90
21123;DHT22;10719;48.130;11.630;2023-11-21T09:12:23;8.10;99.90
21123;DHT22;10719;48.130;11.630;2023-11-21T09:14:50;8.40;99.90
21123;DHT22;10719;48.130;11.630;2023-11-21T09:17:16;8.50;99.90
21123;DHT22;10719;48.130;11.630;2023-11-21T09:19:42;8.50;99.90
21123;DHT22;10719;48.130;11.630;2023-11-21T09:22:10;8.70;99.90
21123;DHT22;10719;48.130;11.630;2023-11-21T09:24:36;8.70;99.90
21123;DHT22;10719;48.130;11.630;2023-11-21T09:27:03;8.60;99.90
21123;DHT22;10719;48.130;11.630;2023-11-21T09:29:30;8.60;99.90
21123;DHT22;10719;48.130;11.630;2023-11-21T09:31:56;8.70;99.90
21123;DHT22;10719;48.130;11.630;2023-11-21T09:34:25;8.60;99.90
21123;DHT22;10719;48.130;11.630;2023-11-21T09:36:51;8.60;99.90
21123;DHT22;10719;48.130;11.630;2023-11-21T09:39:17;8.50;99.90
21123;DHT22;10719;48.130;11.630;2023-11-21T09:41:50;8.60;99.90
21123;DHT22;10719;48.130;11.630;2023-11-21T09:44:19;8.70;99.90
21123;DHT22;10719;48.130;11.630;2023-11-21T09:46:49;8.80;99.90
21123;DHT22;10719;48.130;11.630;2023-11-21T09:49:18;8.70;99.90
21123;DHT22;10719;48.130;11.630;2023-11-21T09:51:45;8.60;99.90
21123;DHT22;10719;48.130;11.630;2023-11-21T09:54:13;8.80;99.90
21123;DHT22;10719;48.130;11.630;2023-11-21T09:56:41;8.80;99.90
21123;DHT22;10719;48.130;11.630;2023-11-21T09:59:10;8.60;99.90
21123;DHT22;10719;48.130;11.630;2023-11-21T10:01:38;8.80;99.90
21123;DHT22;10719;48.130;11.630;2023-11-21T10:04:06;8.90;99.90
21123;DHT22;10719;48.130;11.630;2023-11-21T10:06:40;8.80;99.90
21123;DHT22;10719;48.130;11.630;2023-11-21T10:09:12;8.80;99.90
21123;DHT22;10719;48.130;11.630;2023-11-21T10:11:42;8.80;99.90
21123;DHT22;10719;48.130;11.630;2023-11-21T10:14:12;8.80;99.90
21123;DHT22;10719;48.130;11.630;2023-11-21T10:16:40;8.90;99.90
21123;DHT22;10719;48.130;11.630;2023-11-21T10:19:06;9.10;99.90
21123;DHT22;10719;48.130;11.630;2023-11-21T10:21:35;9.00;99.90
21123;DHT22;10719;48.130;11.630;2023-11-21T10:24:01;9.00;99.90
21123;DHT22;10719;48.130;11.630;2023-11-21T10:26:28;9.00;99.90
21123;DHT22;10719;48.130;11.630;2023-11-21T10:29:01;9.00;99.90
21123;DHT22;10719;48.130;11.630;2023-11-21T10:31:30;9.20;99.90
21123;DHT22;10719;48.130;11.630;2023-11-21T10:34:18;9.30;99.90
21123;DHT22;10719;48.130;11.630;2023-11-21T10:36:44;9.30;99.90
21123;DHT22;10719;48.130;11.630;2023-11-21T10:39:17;9.40;99.90
21123;DHT22;10719;48.130;11.630;2023-11-21T10:41:45;9.40;99.90
21123;DHT22;10719;48.130;11.630;2023-11-21T10:44:13;9.40;99.90
21123;DHT22;10719;48.130;11.630;2023-11-21T10:46:40;9.40;99.90
21123;DHT22;10719;48.130;11.630;2023-11-21T10:49:08;9.40;99.90
21123;DHT22;10719;48.130;11.630;2023-11-21T10:51:34;9.40;99.90
21123;DHT22;10719;48.130;11.630;2023-11-21T10:54:00;9.40;99.90
21123;DHT22;10719;48.130;11.630;2023-11-21T10:56:26;9.30;99.90
21123;DHT22;10719;48.130;11.630;2023-11-21T10:58:52;9.40;99.90
21123;DHT22;10719;48.130;11.630;2023-11-21T11:01:19;9.50;99.90
21123;DHT22;10719;48.130;11.630;2023-11-21T11:03:47;9.50;99.90
21123;DHT22;10719;48.130;11.630;2023-11-21T11:06:13;9.50;99.90
21123;DHT22;10719;48.130;11.630;2023-11-21T11:08:40;9.70;99.90
21123;DHT22;10719;48.130;11.630;2023-11-21T11:11:07;9.80;99.90
21123;DHT22;10719;48.130;11.630;2023-11-21T11:13:33;9.80;99.90
21123;DHT22;10719;48.130;11.630;2023-11-21T11:15:59;9.70;99.90
21123;DHT22;10719;48.130;11.630;2023-11-21T11:18:29;9.60;99.90
21123;DHT22;10719;48.130;11.630;2023-11-21T11:21:07;9.60;99.90
21123;DHT22;10719;48.130;11.630;2023-11-21T11:24:27;9.40;99.90
21123;DHT22;10719;48.130;11.630;2023-11-21T11:26:39;9.40;99.90
21123;DHT22;10719;48.130;11.630;2023-11-21T11:32:16;9.50;99.90
21123;DHT22;10719;48.130;11.630;2023-11-21T11:35:01;9.60;99.90
21123;DHT22;10719;48.130;11.630;2023-11-21T11:37:28;9.80;99.90
21123;DHT22;10719;48.130;11.630;2023-11-21T11:39:54;9.90;99.90
21123;DHT22;10719;48.130;11.630;2023-11-21T11:42:22;9.70;99.90
21123;DHT22;10719;48.130;11.630;2023-11-21T11:44:49;9.70;99.90
21123;DHT22;10719;48.130;11.630;2023-11-21T11:52:42;9.30;99.90
21123;DHT22;10719;48.130;11.630;2023-11-21T11:55:12;9.20;99.90
21123;DHT22;10719;48.130;11.630;2023-11-21T11:57:40;9.20;99.90
21123;DHT22;10719;48.130;11.630;2023-11-21T12:00:14;9.20;99.90
21123;DHT22;10719;48.130;11.630;2023-11-21T12:02:49;9.20;99.90
21123;DHT22;10719;48.130;11.630;2023-11-21T12:05:16;9.30;99.90
21123;DHT22;10719;48.130;11.630;2023-11-21T12:07:50;9.40;99.90
21123;DHT22;10719;48.130;11.630;2023-11-21T12:10:35;9.40;99.90
21123;DHT22;10719;48.130;11.630;2023-11-21T12:13:05;9.30;99.90
21123;DHT22;10719;48.130;11.630;2023-11-21T12:15:36;9.10;99.90
21123;DHT22;10719;48.130;11.630;2023-11-21T12:18:02;9.00;99.90
21123;DHT22;10719;48.130;11.630;2023-11-21T12:20:29;8.80;99.90
21123;DHT22;10719;48.130;11.630;2023-11-21T12:22:59;8.80;99.90
21123;DHT22;10719;48.130;11.630;2023-11-21T12:25:30;8.80;99.90
21123;DHT22;10719;48.130;11.630;2023-11-21T12:27:58;8.90;99.90
21123;DHT22;10719;48.130;11.630;2023-11-21T12:30:26;8.90;99.90
21123;DHT22;10719;48.130;11.630;2023-11-21T12:32:55;8.90;99.90
21123;DHT22;10719;48.130;11.630;2023-11-21T12:35:33;8.90;99.90
21123;DHT22;10719;48.130;11.630;2023-11-21T12:38:00;8.90;99.90
21123;DHT22;10719;48.130;11.630;2023-11-21T12:40:28;9.10;99.90
21123;DHT22;10719;48.130;11.630;2023-11-21T12:42:57;9.20;99.90
21123;DHT22;10719;48.130;11.630;2023-11-21T12:45:26;9.40;99.90
21123;DHT22;10719;48.130;11.630;2023-11-21T12:47:57;9.50;99.90
21123;DHT22;10719;48.130;11.630;2023-11-21T12:50:26;10.10;99.90
21123;DHT22;10719;48.130;11.630;2023-11-21T12:53:04;10.40;99.90
21123;DHT22;10719;48.130;11.630;2023-11-21T12:55:32;10.80;99.90
21123;DHT22;10719;48.130;11.630;2023-11-21T12:58:01;11.20;99.90
21123;DHT22;10719;48.130;11.630;2023-11-21T13:00:45;11.10;99.90
21123;DHT22;10719;48.130;11.630;2023-11-21T13:03:12;10.70;99.90
21123;DHT22;10719;48.130;11.630;2023-11-21T13:05:42;10.30;99.90
21123;DHT22;10719;48.130;11.630;2023-11-21T13:08:12;10.10;99.90
21123;DHT22;10719;48.130;11.630;2023-11-21T13:10:40;9.50;99.90
21123;DHT22;10719;48.130;11.630;2023-11-21T13:13:09;9.10;99.90
21123;DHT22;10719;48.130;11.630;2023-11-21T13:15:39;9.00;99.90
21123;DHT22;10719;48.130;11.630;2023-11-21T13:18:06;8.80;99.90
21123;DHT22;10719;48.130;11.630;2023-11-21T13:20:32;8.60;99.90
21123;DHT22;10719;48.130;11.630;2023-11-21T13:22:59;8.40;99.90
21123;DHT22;10719;48.130;11.630;2023-11-21T13:25:29;8.40;99.90
21123;DHT22;10719;48.130;11.630;2023-11-21T13:27:57;8.40;99.90
21123;DHT22;10719;48.130;11.630;2023-11-21T13:30:27;8.40;99.90
21123;DHT22;10719;48.130;11.630;2023-11-21T13:33:02;8.40;99.90
21123;DHT22;10719;48.130;11.630;2023-11-21T13:35:35;8.60;99.90
21123;DHT22;10719;48.130;11.630;2023-11-21T13:38:09;8.60;99.90
21123;DHT22;10719;48.130;11.630;2023-11-21T13:40:35;8.60;99.90
21123;DHT22;10719;48.130;11.630;2023-11-21T13:43:16;8.70;99.90
21123;DHT22;10719;48.130;11.630;2023-11-21T13:45:44;8.80;99.90
21123;DHT22;10719;48.130;11.630;2023-11-21T13:48:12;8.70;99.90
21123;DHT22;10719;48.130;11.630;2023-11-21T13:50:54;8.80;99.90
21123;DHT22;10719;48.130;11.630;2023-11-21T13:53:36;8.80;99.90
21123;DHT22;10719;48.130;11.630;2023-11-21T13:56:03;8.80;99.90
21123;DHT22;10719;48.130;11.630;2023-11-21T13:58:29;8.80;99.90
21123;DHT22;10719;48.130;11.630;2023-11-21T14:01:10;8.80;99.90
21123;DHT22;10719;48.130;11.630;2023-11-21T14:03:57;8.80;99.90
21123;DHT22;10719;48.130;11.630;2023-11-21T14:06:26;8.70;99.90
21123;DHT22;10719;48.130;11.630;2023-11-21T14:09:02;8.60;99.90
21123;DHT22;10719;48.130;11.630;2023-11-21T14:11:32;8.50;99.90
21123;DHT22;10719;48.130;11.630;2023-11-21T14:13:57;8.50;99.90
21123;DHT22;10719;48.130;11.630;2023-11-21T14:16:25;8.40;99.90
21123;DHT22;10719;48.130;11.630;2023-11-21T14:18:50;8.50;99.90
21123;DHT22;10719;48.130;11.630;2023-11-21T14:21:26;8.40;99.90
21123;DHT22;10719;48.130;11.630;2023-11-21T14:23:52;8.30;99.90
21123;DHT22;10719;48.130;11.630;2023-11-21T14:26:20;8.20;99.90
21123;DHT22;10719;48.130;11.630;2023-11-21T14:28:46;7.90;99.90
21123;DHT22;10719;48.130;11.630;2023-11-21T14:31:14;7.90;99.90
21123;DHT22;10719;48.130;11.630;2023-11-21T14:33:43;7.80;99.90
21123;DHT22;10719;48.130;11.630;2023-11-21T14:36:09;7.60;99.90
21123;DHT22;10719;48.130;11.630;2023-11-21T14:38:36;7.50;99.90
21123;DHT22;10719;48.130;11.630;2023-11-21T14:41:05;7.60;99.90
21123;DHT22;10719;48.130;11.630;2023-11-21T14:43:36;7.60;99.90
21123;DHT22;10719;48.130;11.630;2023-11-21T14:46:02;7.50;99.90
21123;DHT22;10719;48.130;11.630;2023-11-21T14:48:39;7.50;99.90
21123;DHT22;10719;48.130;11.630;2023-11-21T14:51:10;7.50;99.90
21123;DHT22;10719;48.130;11.630;2023-11-21T14:53:54;7.40;99.90
21123;DHT22;10719;48.130;11.630;2023-11-21T14:56:22;7.40;99.90
21123;DHT22;10719;48.130;11.630;2023-11-21T14:58:53;7.50;99.90
21123;DHT22;10719;48.130;11.630;2023-11-21T15:01:20;7.40;99.90
21123;DHT22;10719;48.130;11.630;2023-11-21T15:03:56;7.40;99.90
21123;DHT22;10719;48.130;11.630;2023-11-21T15:06:21;7.30;99.90
21123;DHT22;10719;48.130;11.630;2023-11-21T15:08:57;7.30;99.90
21123;DHT22;10719;48.130;11.630;2023-11-21T15:11:31;7.30;99.90
21123;DHT22;10719;48.130;11.630;2023-11-21T15:13:58;7.30;99.90
21123;DHT22;10719;48.130;11.630;2023-11-21T15:16:24;7.30;99.90
21123;DHT22;10719;48.130;11.630;2023-11-21T15:18:54;7.20;99.90
21123;DHT22;10719;48.130;11.630;2023-11-21T15:21:20;7.30;99.90
21123;DHT22;10719;48.130;11.630;2023-11-21T15:23:47;7.30;99.90
21123;DHT22;10719;48.130;11.630;2023-11-21T15:26:13;7.20;99.90
21123;DHT22;10719;48.130;11.630;2023-11-21T15:28:39;7.20;99.90
21123;DHT22;10719;48.130;11.630;2023-11-21T15:31:04;7.20;99.90
21123;DHT22;10719;48.130;11.630;2023-11-21T15:33:30;7.20;99.90
21123;DHT22;10719;48.130;11.630;2023-11-21T15:35:56;7.20;99.90
21123;DHT22;10719;48.130;11.630;2023-11-21T15:38:23;7.20;99.90
21123;DHT22;10719;48.130;11.630;2023-11-21T15:40:49;7.10;99.90